Strona główna
METAR-TAF:

METAR-TAF

Lotnisko :

Wasilla, Alaska, Stany Zjednoczone

Szerokość geograficzna: 61-34-19N, Długość geograficzna: 149-32-26W, wysokość: 106 m

Aktualna obserwacja pogody

Raport powstał 43 minut temu, godzina 13:56 UTC
Cisza
Temperatura 9°C
Wilgotność 81%
Ciśnienie 1013 hPa
Widzialność: 16.1 km
bezchmurnie

METAR: PAWS 211356Z AUTO 00000KT 10SM CLR 09/06 A2992 RMK AO2 SLP133 T00940061

czas: 06:39 (14:39 UTC)


TAF: brakujący

Obserwacja i prognoza pogody dla ponad 4000 lotnisk (raport METAR i TAF).

Dostępne stacje oznaczono żółtymi i czerwonymi punktami na mapie.

Najedź kursorem aby zobaczyć nazwę stacji.

Kliknij aby zobaczyć obserwacje i prognozy pogody.

Aby zmienić mapę: kliknij na zielony przycisk z czarnym krzyżykiem, aby powiększyć; na zielony przycisk z myślnikiem, aby pomniejszyć; na zielone strzałki, aby przejść do map sąsiednich.


METAR-TAF: